sensor_id;sensor_type;location;lat;lon;timestamp;temperature;humidity
7455;HTU21D;3769;51.208;4.454;2023-08-07T00:00:59;14.4;98.4
7455;HTU21D;3769;51.208;4.454;2023-08-07T00:05:59;14.3;98.4
7455;HTU21D;3769;51.208;4.454;2023-08-07T00:11:07;14.3;98.4
7455;HTU21D;3769;51.208;4.454;2023-08-07T00:15:59;14.3;98.4
7455;HTU21D;3769;51.208;4.454;2023-08-07T00:20:59;14.2;98.4
7455;HTU21D;3769;51.208;4.454;2023-08-07T00:25:59;14.4;98.4
7455;HTU21D;3769;51.208;4.454;2023-08-07T00:30:59;14.3;98.4
7455;HTU21D;3769;51.208;4.454;2023-08-07T00:35:59;14.5;98.4
7455;HTU21D;3769;51.208;4.454;2023-08-07T00:40:59;14.3;98.4
7455;HTU21D;3769;51.208;4.454;2023-08-07T00:45:59;14.4;98.4
7455;HTU21D;3769;51.208;4.454;2023-08-07T00:50:59;14.4;98.4
7455;HTU21D;3769;51.208;4.454;2023-08-07T00:55:59;14.3;98.4
7455;HTU21D;3769;51.208;4.454;2023-08-07T01:00:59;14.2;98.4
7455;HTU21D;3769;51.208;4.454;2023-08-07T01:05:59;14.2;98.4
7455;HTU21D;3769;51.208;4.454;2023-08-07T01:11:34;14.3;98.4
7455;HTU21D;3769;51.208;4.454;2023-08-07T01:16:01;14.2;98.4
7455;HTU21D;3769;51.208;4.454;2023-08-07T01:20:59;14.3;98.4
7455;HTU21D;3769;51.208;4.454;2023-08-07T01:25:59;14.1;98.4
7455;HTU21D;3769;51.208;4.454;2023-08-07T01:30:59;14.2;98.4
7455;HTU21D;3769;51.208;4.454;2023-08-07T01:36:00;14.2;98.4
7455;HTU21D;3769;51.208;4.454;2023-08-07T01:40:59;14.2;98.4
7455;HTU21D;3769;51.208;4.454;2023-08-07T01:45:59;14.5;98.4
7455;HTU21D;3769;51.208;4.454;2023-08-07T01:50:59;14.4;98.4
7455;HTU21D;3769;51.208;4.454;2023-08-07T01:55:59;14.4;98.4
7455;HTU21D;3769;51.208;4.454;2023-08-07T02:00:59;14.4;98.4
7455;HTU21D;3769;51.208;4.454;2023-08-07T02:05:59;14.4;98.4
7455;HTU21D;3769;51.208;4.454;2023-08-07T02:10:59;14.2;98.4
7455;HTU21D;3769;51.208;4.454;2023-08-07T02:15:59;14.3;98.4
7455;HTU21D;3769;51.208;4.454;2023-08-07T02:20:59;14;98.4
7455;HTU21D;3769;51.208;4.454;2023-08-07T02:25:59;14;98.4
7455;HTU21D;3769;51.208;4.454;2023-08-07T02:30:59;13.9;98.3
7455;HTU21D;3769;51.208;4.454;2023-08-07T02:35:59;14;98.3
7455;HTU21D;3769;51.208;4.454;2023-08-07T02:40:59;14;98.4
7455;HTU21D;3769;51.208;4.454;2023-08-07T02:45:59;14;98.4
7455;HTU21D;3769;51.208;4.454;2023-08-07T02:50:59;14.1;98.4
7455;HTU21D;3769;51.208;4.454;2023-08-07T02:55:59;14;98.4
7455;HTU21D;3769;51.208;4.454;2023-08-07T03:01:06;14.3;98.4
7455;HTU21D;3769;51.208;4.454;2023-08-07T03:05:59;14.3;98.4
7455;HTU21D;3769;51.208;4.454;2023-08-07T03:10:59;14.3;98.4
7455;HTU21D;3769;51.208;4.454;2023-08-07T03:15:59;14.4;98.4
7455;HTU21D;3769;51.208;4.454;2023-08-07T03:20:59;14.4;98.4
7455;HTU21D;3769;51.208;4.454;2023-08-07T03:26:03;14.3;98.4
7455;HTU21D;3769;51.208;4.454;2023-08-07T03:30:59;14.4;98.4
7455;HTU21D;3769;51.208;4.454;2023-08-07T03:35:59;14.4;98.4
7455;HTU21D;3769;51.208;4.454;2023-08-07T03:40:59;14.6;98.4
7455;HTU21D;3769;51.208;4.454;2023-08-07T03:45:59;14.3;98.4
7455;HTU21D;3769;51.208;4.454;2023-08-07T03:51:04;14.2;98.4
7455;HTU21D;3769;51.208;4.454;2023-08-07T03:55:59;14.2;98.4
7455;HTU21D;3769;51.208;4.454;2023-08-07T04:00:59;14.3;98.4
7455;HTU21D;3769;51.208;4.454;2023-08-07T04:05:59;14.4;98.4
7455;HTU21D;3769;51.208;4.454;2023-08-07T04:11:01;14.3;98.4
7455;HTU21D;3769;51.208;4.454;2023-08-07T04:15:59;14.1;98.4
7455;HTU21D;3769;51.208;4.454;2023-08-07T04:20:59;14.1;98.4
7455;HTU21D;3769;51.208;4.454;2023-08-07T04:25:59;13.9;98.3
7455;HTU21D;3769;51.208;4.454;2023-08-07T04:30:59;14;98.3
7455;HTU21D;3769;51.208;4.454;2023-08-07T04:35:59;14.1;98.4
7455;HTU21D;3769;51.208;4.454;2023-08-07T04:40:59;14;98.3
7455;HTU21D;3769;51.208;4.454;2023-08-07T04:45:59;14.2;98.4
7455;HTU21D;3769;51.208;4.454;2023-08-07T04:50:59;14.1;98.4
7455;HTU21D;3769;51.208;4.454;2023-08-07T04:55:59;14.1;98.4
7455;HTU21D;3769;51.208;4.454;2023-08-07T05:00:59;14.1;98.4
7455;HTU21D;3769;51.208;4.454;2023-08-07T05:05:59;14.1;98.4
7455;HTU21D;3769;51.208;4.454;2023-08-07T05:10:59;14.3;98.4
7455;HTU21D;3769;51.208;4.454;2023-08-07T05:15:59;14.3;98.4
7455;HTU21D;3769;51.208;4.454;2023-08-07T05:20:59;14.2;98.4
7455;HTU21D;3769;51.208;4.454;2023-08-07T05:25:59;14.2;98.4
7455;HTU21D;3769;51.208;4.454;2023-08-07T05:30:59;14.4;98.4
7455;HTU21D;3769;51.208;4.454;2023-08-07T05:35:59;14.3;98.4
7455;HTU21D;3769;51.208;4.454;2023-08-07T05:40:59;14.3;98.4
7455;HTU21D;3769;51.208;4.454;2023-08-07T05:45:59;14.1;98.4
7455;HTU21D;3769;51.208;4.454;2023-08-07T05:50:59;14.2;98.4
7455;HTU21D;3769;51.208;4.454;2023-08-07T05:55:59;14.2;98.4
7455;HTU21D;3769;51.208;4.454;2023-08-07T06:00:59;14;98.3
7455;HTU21D;3769;51.208;4.454;2023-08-07T06:05:59;14.1;98.4
7455;HTU21D;3769;51.208;4.454;2023-08-07T06:10:59;14.2;98.4
7455;HTU21D;3769;51.208;4.454;2023-08-07T06:15:59;14.1;98.4
7455;HTU21D;3769;51.208;4.454;2023-08-07T06:20:59;14.2;98.4
7455;HTU21D;3769;51.208;4.454;2023-08-07T06:25:59;14.3;98.4
7455;HTU21D;3769;51.208;4.454;2023-08-07T06:31:02;14.3;98.4
7455;HTU21D;3769;51.208;4.454;2023-08-07T06:35:59;14.4;98.4
7455;HTU21D;3769;51.208;4.454;2023-08-07T06:40:59;14.4;98.4
7455;HTU21D;3769;51.208;4.454;2023-08-07T06:45:59;14.7;98.5
7455;HTU21D;3769;51.208;4.454;2023-08-07T06:50:59;14.8;98.5
7455;HTU21D;3769;51.208;4.454;2023-08-07T06:55:59;15.1;98.5
7455;HTU21D;3769;51.208;4.454;2023-08-07T07:00:59;15.3;98.6
7455;HTU21D;3769;51.208;4.454;2023-08-07T07:05:59;15.4;98.6
7455;HTU21D;3769;51.208;4.454;2023-08-07T07:10:59;15.4;98.6
7455;HTU21D;3769;51.208;4.454;2023-08-07T07:15:59;15.5;98.6
7455;HTU21D;3769;51.208;4.454;2023-08-07T07:20:59;15.4;98.6
7455;HTU21D;3769;51.208;4.454;2023-08-07T07:25:59;15.2;98.5
7455;HTU21D;3769;51.208;4.454;2023-08-07T07:30:59;15.3;98.5
7455;HTU21D;3769;51.208;4.454;2023-08-07T07:35:59;15.2;98.5
7455;HTU21D;3769;51.208;4.454;2023-08-07T07:40:59;15.3;98.5
7455;HTU21D;3769;51.208;4.454;2023-08-07T07:45:59;15.4;98.6
7455;HTU21D;3769;51.208;4.454;2023-08-07T07:51:00;15.7;98.6
7455;HTU21D;3769;51.208;4.454;2023-08-07T07:55:59;15.7;98.6
7455;HTU21D;3769;51.208;4.454;2023-08-07T08:00:59;15.7;98.6
7455;HTU21D;3769;51.208;4.454;2023-08-07T08:05:59;15.7;98.6
7455;HTU21D;3769;51.208;4.454;2023-08-07T08:10:59;15.8;98.6
7455;HTU21D;3769;51.208;4.454;2023-08-07T08:15:59;15.9;98.6
7455;HTU21D;3769;51.208;4.454;2023-08-07T08:20:59;15.6;98.6
7455;HTU21D;3769;51.208;4.454;2023-08-07T08:25:59;15.8;98.6
7455;HTU21D;3769;51.208;4.454;2023-08-07T08:30:59;16;98.7
7455;HTU21D;3769;51.208;4.454;2023-08-07T08:35:59;16.2;98.7
7455;HTU21D;3769;51.208;4.454;2023-08-07T08:41:00;16;98.6
7455;HTU21D;3769;51.208;4.454;2023-08-07T08:45:59;16.3;98.7
7455;HTU21D;3769;51.208;4.454;2023-08-07T08:50:59;16.5;98.7
7455;HTU21D;3769;51.208;4.454;2023-08-07T08:55:59;16.4;98.7
7455;HTU21D;3769;51.208;4.454;2023-08-07T09:00:59;16.6;96.9
7455;HTU21D;3769;51.208;4.454;2023-08-07T09:05:59;16.6;98.7
7455;HTU21D;3769;51.208;4.454;2023-08-07T09:10:59;16.2;98.7
7455;HTU21D;3769;51.208;4.454;2023-08-07T09:15:59;16.4;98.7
7455;HTU21D;3769;51.208;4.454;2023-08-07T09:20:59;16.7;92.8
7455;HTU21D;3769;51.208;4.454;2023-08-07T09:26:00;16.7;89.4
7455;HTU21D;3769;51.208;4.454;2023-08-07T09:30:59;17.1;90.4
7455;HTU21D;3769;51.208;4.454;2023-08-07T09:36:00;16.9;88
7455;HTU21D;3769;51.208;4.454;2023-08-07T09:40:59;17.2;88.3
7455;HTU21D;3769;51.208;4.454;2023-08-07T09:46:03;17.2;92.5
7455;HTU21D;3769;51.208;4.454;2023-08-07T09:51:00;17.2;89.6
7455;HTU21D;3769;51.208;4.454;2023-08-07T09:55:59;17.2;92.3
7455;HTU21D;3769;51.208;4.454;2023-08-07T10:01:00;17.2;89.3
7455;HTU21D;3769;51.208;4.454;2023-08-07T10:05:59;17.1;86.2
7455;HTU21D;3769;51.208;4.454;2023-08-07T10:10:59;17.4;87.1
7455;HTU21D;3769;51.208;4.454;2023-08-07T10:15:59;17.2;86.8
7455;HTU21D;3769;51.208;4.454;2023-08-07T10:21:00;17;90.5
7455;HTU21D;3769;51.208;4.454;2023-08-07T10:25:59;17.1;89.1
7455;HTU21D;3769;51.208;4.454;2023-08-07T10:30:59;17.5;83.2
7455;HTU21D;3769;51.208;4.454;2023-08-07T10:35:59;17.4;86.5
7455;HTU21D;3769;51.208;4.454;2023-08-07T10:41:01;17.5;86.5
7455;HTU21D;3769;51.208;4.454;2023-08-07T10:46:02;17.5;81.2
7455;HTU21D;3769;51.208;4.454;2023-08-07T10:51:03;17.6;75.4
7455;HTU21D;3769;51.208;4.454;2023-08-07T10:56:15;17.9;78.3
7455;HTU21D;3769;51.208;4.454;2023-08-07T11:05:59;18.2;79.9
7455;HTU21D;3769;51.208;4.454;2023-08-07T11:11:03;17.9;82.4
7455;HTU21D;3769;51.208;4.454;2023-08-07T11:16:00;17.9;77.8
7455;HTU21D;3769;51.208;4.454;2023-08-07T11:20:59;18.1;79.5
7455;HTU21D;3769;51.208;4.454;2023-08-07T11:25:59;18.2;78.8
7455;HTU21D;3769;51.208;4.454;2023-08-07T11:30:59;18.1;74
7455;HTU21D;3769;51.208;4.454;2023-08-07T11:35:59;18;77.9
7455;HTU21D;3769;51.208;4.454;2023-08-07T11:41:00;18.3;78.1
7455;HTU21D;3769;51.208;4.454;2023-08-07T11:46:01;18.6;75.1
7455;HTU21D;3769;51.208;4.454;2023-08-07T11:50:59;18.5;76.3
7455;HTU21D;3769;51.208;4.454;2023-08-07T11:56:03;18.4;74.1
7455;HTU21D;3769;51.208;4.454;2023-08-07T12:01:01;18.6;70.6
7455;HTU21D;3769;51.208;4.454;2023-08-07T12:06:03;18.6;70.2
7455;HTU21D;3769;51.208;4.454;2023-08-07T12:11:00;18.5;69.9
7455;HTU21D;3769;51.208;4.454;2023-08-07T12:15:59;18.4;71.2
7455;HTU21D;3769;51.208;4.454;2023-08-07T12:21:01;18.7;74.5
7455;HTU21D;3769;51.208;4.454;2023-08-07T12:25:59;18.5;78
7455;HTU21D;3769;51.208;4.454;2023-08-07T12:30:59;18.9;79.2
7455;HTU21D;3769;51.208;4.454;2023-08-07T12:35:59;18.7;82.7
7455;HTU21D;3769;51.208;4.454;2023-08-07T12:40:59;18.7;80.7
7455;HTU21D;3769;51.208;4.454;2023-08-07T12:45:59;19;82.8
7455;HTU21D;3769;51.208;4.454;2023-08-07T12:50:59;20.1;73.8
7455;HTU21D;3769;51.208;4.454;2023-08-07T12:55:59;22.8;61.4
7455;HTU21D;3769;51.208;4.454;2023-08-07T13:00:59;21.3;65.2
7455;HTU21D;3769;51.208;4.454;2023-08-07T13:05:59;20.4;69.1
7455;HTU21D;3769;51.208;4.454;2023-08-07T13:10:59;23.1;61
7455;HTU21D;3769;51.208;4.454;2023-08-07T13:15:59;27.9;44.7
7455;HTU21D;3769;51.208;4.454;2023-08-07T13:20:59;29.1;38.5
7455;HTU21D;3769;51.208;4.454;2023-08-07T13:25:59;27.4;46.4
7455;HTU21D;3769;51.208;4.454;2023-08-07T13:30:59;29.7;36.7
7455;HTU21D;3769;51.208;4.454;2023-08-07T13:35:59;24.5;51.1
7455;HTU21D;3769;51.208;4.454;2023-08-07T13:40:59;22.2;61
7455;HTU21D;3769;51.208;4.454;2023-08-07T13:45:59;21.2;67.2
7455;HTU21D;3769;51.208;4.454;2023-08-07T13:50:59;20.7;71.4
7455;HTU21D;3769;51.208;4.454;2023-08-07T13:55:59;20.4;74.5
7455;HTU21D;3769;51.208;4.454;2023-08-07T14:00:59;20.3;76.1
7455;HTU21D;3769;51.208;4.454;2023-08-07T14:05:59;20.2;72.7
7455;HTU21D;3769;51.208;4.454;2023-08-07T14:10:59;20.2;72.1
7455;HTU21D;3769;51.208;4.454;2023-08-07T14:15:59;20.2;69.4
7455;HTU21D;3769;51.208;4.454;2023-08-07T14:20:59;20.2;71.4
7455;HTU21D;3769;51.208;4.454;2023-08-07T14:25:59;19.8;73.2
7455;HTU21D;3769;51.208;4.454;2023-08-07T14:30:59;19.6;74.5
7455;HTU21D;3769;51.208;4.454;2023-08-07T14:35:59;19.9;72.9
7455;HTU21D;3769;51.208;4.454;2023-08-07T14:40:59;20;74.3
7455;HTU21D;3769;51.208;4.454;2023-08-07T14:45:59;19.8;74.4
7455;HTU21D;3769;51.208;4.454;2023-08-07T14:50:59;19.7;73.7
7455;HTU21D;3769;51.208;4.454;2023-08-07T14:55:59;19.7;77
7455;HTU21D;3769;51.208;4.454;2023-08-07T15:00:59;19.4;77.2
7455;HTU21D;3769;51.208;4.454;2023-08-07T15:05:59;19.6;75.9
7455;HTU21D;3769;51.208;4.454;2023-08-07T15:10:59;19.8;70.1
7455;HTU21D;3769;51.208;4.454;2023-08-07T15:15:59;19.5;70.4
7455;HTU21D;3769;51.208;4.454;2023-08-07T15:20:59;19.2;72.2
7455;HTU21D;3769;51.208;4.454;2023-08-07T15:25:59;19.3;74.1
7455;HTU21D;3769;51.208;4.454;2023-08-07T15:30:59;19.6;73.5
7455;HTU21D;3769;51.208;4.454;2023-08-07T15:35:59;19.6;71
7455;HTU21D;3769;51.208;4.454;2023-08-07T15:40:59;19.6;69.9
7455;HTU21D;3769;51.208;4.454;2023-08-07T15:45:59;19.7;69.7
7455;HTU21D;3769;51.208;4.454;2023-08-07T15:50:59;19.3;71.5
7455;HTU21D;3769;51.208;4.454;2023-08-07T15:55:59;19.3;72.7
7455;HTU21D;3769;51.208;4.454;2023-08-07T16:00:59;19.2;71.2
7455;HTU21D;3769;51.208;4.454;2023-08-07T16:05:59;19.3;72.1
7455;HTU21D;3769;51.208;4.454;2023-08-07T16:10:59;19.3;74.8
7455;HTU21D;3769;51.208;4.454;2023-08-07T16:15:59;19.5;75.1
7455;HTU21D;3769;51.208;4.454;2023-08-07T16:21:00;19.3;75.2
7455;HTU21D;3769;51.208;4.454;2023-08-07T16:25:59;19.1;77.1
7455;HTU21D;3769;51.208;4.454;2023-08-07T16:30:59;19.1;76.7
7455;HTU21D;3769;51.208;4.454;2023-08-07T16:35:59;19.1;76.4
7455;HTU21D;3769;51.208;4.454;2023-08-07T16:40:59;19;76.5
7455;HTU21D;3769;51.208;4.454;2023-08-07T16:45:59;19.1;76
7455;HTU21D;3769;51.208;4.454;2023-08-07T16:50:59;19.1;76.2
7455;HTU21D;3769;51.208;4.454;2023-08-07T16:55:59;19.3;75.8
7455;HTU21D;3769;51.208;4.454;2023-08-07T17:00:59;19.1;74.6
7455;HTU21D;3769;51.208;4.454;2023-08-07T17:05:59;18.9;75.9
7455;HTU21D;3769;51.208;4.454;2023-08-07T17:10:59;18.7;75.4
7455;HTU21D;3769;51.208;4.454;2023-08-07T17:15:59;18.9;78.1
7455;HTU21D;3769;51.208;4.454;2023-08-07T17:20:59;18.8;77.7
7455;HTU21D;3769;51.208;4.454;2023-08-07T17:25:59;19;82.4
7455;HTU21D;3769;51.208;4.454;2023-08-07T17:31:00;18.8;86.3
7455;HTU21D;3769;51.208;4.454;2023-08-07T17:36:00;18.6;86.3
7455;HTU21D;3769;51.208;4.454;2023-08-07T17:40:59;18.6;87.4
7455;HTU21D;3769;51.208;4.454;2023-08-07T17:45:59;18.9;83.1
7455;HTU21D;3769;51.208;4.454;2023-08-07T17:51:00;18.9;85.5
7455;HTU21D;3769;51.208;4.454;2023-08-07T17:55:59;18.7;81.9
7455;HTU21D;3769;51.208;4.454;2023-08-07T18:00:59;18.6;84.9
7455;HTU21D;3769;51.208;4.454;2023-08-07T18:05:59;18.3;86.2
7455;HTU21D;3769;51.208;4.454;2023-08-07T18:11:00;18.4;87.7
7455;HTU21D;3769;51.208;4.454;2023-08-07T18:15:59;18.6;84.9
7455;HTU21D;3769;51.208;4.454;2023-08-07T18:20:59;18.4;86.5
7455;HTU21D;3769;51.208;4.454;2023-08-07T18:25:59;18.3;88.8
7455;HTU21D;3769;51.208;4.454;2023-08-07T18:30:59;18.2;86.2
7455;HTU21D;3769;51.208;4.454;2023-08-07T18:36:00;18.2;88.1
7455;HTU21D;3769;51.208;4.454;2023-08-07T18:40:59;18.4;86.1
7455;HTU21D;3769;51.208;4.454;2023-08-07T18:45:59;18.1;85.9
7455;HTU21D;3769;51.208;4.454;2023-08-07T18:50:59;18.3;86.1
7455;HTU21D;3769;51.208;4.454;2023-08-07T18:56:00;18.2;87.6
7455;HTU21D;3769;51.208;4.454;2023-08-07T19:00:59;18.4;84.6
7455;HTU21D;3769;51.208;4.454;2023-08-07T19:05:59;18.5;86.7
7455;HTU21D;3769;51.208;4.454;2023-08-07T19:10:59;18.5;85.9
7455;HTU21D;3769;51.208;4.454;2023-08-07T19:15:59;18.2;87
7455;HTU21D;3769;51.208;4.454;2023-08-07T19:20:59;18.4;87.8
7455;HTU21D;3769;51.208;4.454;2023-08-07T19:26:00;18.1;90.5
7455;HTU21D;3769;51.208;4.454;2023-08-07T19:30:59;18.2;87.9
7455;HTU21D;3769;51.208;4.454;2023-08-07T19:35:59;18.1;87.4
7455;HTU21D;3769;51.208;4.454;2023-08-07T19:40:59;18;92.1
7455;HTU21D;3769;51.208;4.454;2023-08-07T19:45:59;17.9;92.4
7455;HTU21D;3769;51.208;4.454;2023-08-07T19:51:00;17.9;93.7
7455;HTU21D;3769;51.208;4.454;2023-08-07T19:55:59;18;96.1
7455;HTU21D;3769;51.208;4.454;2023-08-07T20:00:59;18;94.1
7455;HTU21D;3769;51.208;4.454;2023-08-07T20:05:59;17.8;93.3
7455;HTU21D;3769;51.208;4.454;2023-08-07T20:10:59;17.8;98.9
7455;HTU21D;3769;51.208;4.454;2023-08-07T20:15:59;17.6;98.9
7455;HTU21D;3769;51.208;4.454;2023-08-07T20:20:59;17.6;98.9
7455;HTU21D;3769;51.208;4.454;2023-08-07T20:25:59;17.5;98.9
7455;HTU21D;3769;51.208;4.454;2023-08-07T20:30:59;17.4;98.9
7455;HTU21D;3769;51.208;4.454;2023-08-07T20:35:59;17.3;98.8
7455;HTU21D;3769;51.208;4.454;2023-08-07T20:40:59;17.2;98.8
7455;HTU21D;3769;51.208;4.454;2023-08-07T20:45:59;17;98.8
7455;HTU21D;3769;51.208;4.454;2023-08-07T20:50:59;17;98.8
7455;HTU21D;3769;51.208;4.454;2023-08-07T20:56:00;17;98.8
7455;HTU21D;3769;51.208;4.454;2023-08-07T21:01:00;17;98.8
7455;HTU21D;3769;51.208;4.454;2023-08-07T21:05:59;16.9;98.8
7455;HTU21D;3769;51.208;4.454;2023-08-07T21:10:59;16.8;98.8
7455;HTU21D;3769;51.208;4.454;2023-08-07T21:16:00;16.8;98.8
7455;HTU21D;3769;51.208;4.454;2023-08-07T21:21:00;17.1;98.8
7455;HTU21D;3769;51.208;4.454;2023-08-07T21:26:00;17.3;98.9
7455;HTU21D;3769;51.208;4.454;2023-08-07T21:31:00;17.5;98.9
7455;HTU21D;3769;51.208;4.454;2023-08-07T21:36:00;17.3;98.8
7455;HTU21D;3769;51.208;4.454;2023-08-07T21:41:00;17.2;98.8
7455;HTU21D;3769;51.208;4.454;2023-08-07T21:46:00;17.1;98.8
7455;HTU21D;3769;51.208;4.454;2023-08-07T21:51:00;16.9;98.8
7455;HTU21D;3769;51.208;4.454;2023-08-07T21:56:00;16.8;98.8
7455;HTU21D;3769;51.208;4.454;2023-08-07T22:00:59;16.6;98.7
7455;HTU21D;3769;51.208;4.454;2023-08-07T22:05:59;16.5;98.7
7455;HTU21D;3769;51.208;4.454;2023-08-07T22:10:59;16.4;98.7
7455;HTU21D;3769;51.208;4.454;2023-08-07T22:15:59;16.5;98.7
7455;HTU21D;3769;51.208;4.454;2023-08-07T22:20:59;16.5;98.7
7455;HTU21D;3769;51.208;4.454;2023-08-07T22:25:59;16.3;98.7
7455;HTU21D;3769;51.208;4.454;2023-08-07T22:30:59;16.4;98.7
7455;HTU21D;3769;51.208;4.454;2023-08-07T22:35:59;16.4;98.7
7455;HTU21D;3769;51.208;4.454;2023-08-07T22:40:59;16.2;98.7
7455;HTU21D;3769;51.208;4.454;2023-08-07T22:45:59;16.1;98.7
7455;HTU21D;3769;51.208;4.454;2023-08-07T22:50:59;16.1;98.7
7455;HTU21D;3769;51.208;4.454;2023-08-07T22:55:59;15.8;98.6
7455;HTU21D;3769;51.208;4.454;2023-08-07T23:00:59;15.9;98.6
7455;HTU21D;3769;51.208;4.454;2023-08-07T23:05:59;15.8;98.6
7455;HTU21D;3769;51.208;4.454;2023-08-07T23:10:59;15.9;98.6
7455;HTU21D;3769;51.208;4.454;2023-08-07T23:16:00;15.8;98.6
7455;HTU21D;3769;51.208;4.454;2023-08-07T23:20:59;15.8;98.6
7455;HTU21D;3769;51.208;4.454;2023-08-07T23:25:59;15.7;98.6
7455;HTU21D;3769;51.208;4.454;2023-08-07T23:30:59;15.8;98.6
7455;HTU21D;3769;51.208;4.454;2023-08-07T23:35:59;15.7;98.6
7455;HTU21D;3769;51.208;4.454;2023-08-07T23:41:00;15.6;98.6
7455;HTU21D;3769;51.208;4.454;2023-08-07T23:46:00;15.5;98.6
7455;HTU21D;3769;51.208;4.454;2023-08-07T23:50:59;15.5;98.6
7455;HTU21D;3769;51.208;4.454;2023-08-07T23:55:59;15.6;98.6
